Time;durP1;ratioP1;P1;durP2;ratioP2;P2;SDS_P1;SDS_P2;PMS_P1;PMS_P2;Temp;Humidity;BMP_temperature;BMP_pressure;BME280_temperature;BME280_humidity;BME280_pressure;Samples;Min_cycle;Max_cycle;Signal;HPM_P1;HPM_P2
2023/08/20 00:00:13;;;;;;;;;2.00;2.00;;;;;;;;5063865;28;45526;-82
2023/08/20 00:02:41;;;;;;;;;0.75;0.00;;;;;;;;5075668;28;45467;-81
2023/08/20 00:05:07;;;;;;;;;2.25;1.25;;;;;;;;5079078;27;45460;-80
2023/08/20 00:07:32;;;;;;;;;2.50;2.50;;;;;;;;5056698;28;46020;-82
2023/08/20 00:09:58;;;;;;;;;2.75;1.00;;;;;;;;5072845;28;45362;-82
2023/08/20 00:12:24;;;;;;;;;2.25;1.25;;;;;;;;5061462;28;45454;-82
2023/08/20 00:15:06;;;;;;;;;2.00;2.00;;;;;;;;5081954;28;45828;-82
2023/08/20 00:17:32;;;;;;;;;4.00;1.00;;;;;;;;5061398;28;47659;-82
2023/08/20 00:19:58;;;;;;;;;3.00;1.00;;;;;;;;5070876;27;45470;-80
2023/08/20 00:22:24;;;;;;;;;1.00;1.00;;;;;;;;5083204;27;45895;-82
2023/08/20 00:24:50;;;;;;;;;2.50;0.50;;;;;;;;5058019;28;45538;-82
2023/08/20 00:27:15;;;;;;;;;1.50;1.00;;;;;;;;5052490;28;46334;-82
2023/08/20 00:29:40;;;;;;;;;1.00;1.00;;;;;;;;5052021;28;45423;-82
2023/08/20 00:32:05;;;;;;;;;2.00;1.00;;;;;;;;5042467;28;45812;-82
2023/08/20 00:34:31;;;;;;;;;1.00;0.00;;;;;;;;5073473;28;45774;-82
2023/08/20 00:36:56;;;;;;;;;1.50;1.50;;;;;;;;5068530;27;46053;-82
2023/08/20 00:39:21;;;;;;;;;0.00;0.00;;;;;;;;5061412;28;45510;-80
2023/08/20 00:41:53;;;;;;;;;2.50;2.50;;;;;;;;5080903;28;45652;-83
2023/08/20 00:44:19;;;;;;;;;2.00;1.75;;;;;;;;5075536;28;45951;-81
2023/08/20 00:46:45;;;;;;;;;2.00;1.00;;;;;;;;5084950;28;45770;-82
2023/08/20 00:49:11;;;;;;;;;2.25;0.25;;;;;;;;5075613;28;45802;-83
2023/08/20 00:51:37;;;;;;;;;3.00;1.00;;;;;;;;5061125;28;45411;-82
2023/08/20 00:54:02;;;;;;;;;3.00;1.00;;;;;;;;5074857;27;45564;-81
2023/08/20 00:56:28;;;;;;;;;2.25;1.75;;;;;;;;5078915;28;45652;-82
2023/08/20 00:58:54;;;;;;;;;3.50;1.25;;;;;;;;5060403;28;45468;-83
2023/08/20 01:01:21;;;;;;;;;5.00;2.50;;;;;;;;5071524;28;45499;-82
2023/08/20 01:03:46;;;;;;;;;1.75;1.75;;;;;;;;5056271;27;45949;-82
2023/08/20 01:06:31;;;;;;;;;1.00;1.00;;;;;;;;5066922;28;47006;-82
2023/08/20 01:09:03;;;;;;;;;4.75;2.00;;;;;;;;5048732;28;45352;-80
2023/08/20 01:11:33;;;;;;;;;1.50;1.50;;;;;;;;5060110;28;45431;-81
2023/08/20 01:13:59;;;;;;;;;2.00;2.00;;;;;;;;5062859;27;47230;-83
2023/08/20 01:16:24;;;;;;;;;1.00;1.00;;;;;;;;5077103;27;46640;-81
2023/08/20 01:18:49;;;;;;;;;1.25;1.25;;;;;;;;5075001;27;45482;-81
2023/08/20 01:21:23;;;;;;;;;0.00;0.00;;;;;;;;5064503;28;45980;-82
2023/08/20 01:24:08;;;;;;;;;2.25;1.75;;;;;;;;5051819;28;45717;-83
2023/08/20 01:26:33;;;;;;;;;2.75;1.50;;;;;;;;5079699;27;46604;-82
2023/08/20 01:29:01;;;;;;;;;0.25;0.25;;;;;;;;5061586;28;45418;-82
2023/08/20 01:31:28;;;;;;;;;2.50;1.50;;;;;;;;5069629;28;45604;-80
2023/08/20 01:33:59;;;;;;;;;1.25;1.25;;;;;;;;5064377;28;45851;-82
2023/08/20 01:36:24;;;;;;;;;0.00;0.00;;;;;;;;5072494;28;46578;-82
2023/08/20 01:38:51;;;;;;;;;2.00;2.00;;;;;;;;5074205;27;45672;-82
2023/08/20 01:41:16;;;;;;;;;4.25;3.00;;;;;;;;5054900;28;45487;-81
2023/08/20 01:43:41;;;;;;;;;1.50;1.25;;;;;;;;5085164;28;45542;-83
2023/08/20 01:46:07;;;;;;;;;4.25;2.75;;;;;;;;5078504;27;46116;-82
2023/08/20 01:48:34;;;;;;;;;1.25;1.25;;;;;;;;5079985;27;45488;-82
2023/08/20 01:50:59;;;;;;;;;4.75;1.25;;;;;;;;5050444;28;45666;-84
2023/08/20 01:53:24;;;;;;;;;1.00;1.00;;;;;;;;5073671;28;45735;-81
2023/08/20 01:55:49;;;;;;;;;4.25;1.75;;;;;;;;5078533;27;45411;-81
2023/08/20 01:58:15;;;;;;;;;2.50;2.50;;;;;;;;5073771;28;45293;-81
2023/08/20 02:00:40;;;;;;;;;4.25;1.75;;;;;;;;5090616;27;45817;-81
2023/08/20 02:03:06;;;;;;;;;1.00;1.00;;;;;;;;5058013;28;45521;-81
2023/08/20 02:05:31;;;;;;;;;4.25;2.50;;;;;;;;5073091;28;45659;-81
2023/08/20 02:07:56;;;;;;;;;2.00;2.00;;;;;;;;5067819;27;45357;-80
2023/08/20 02:10:22;;;;;;;;;1.25;1.25;;;;;;;;5046272;28;45274;-81
2023/08/20 02:12:47;;;;;;;;;3.00;1.50;;;;;;;;5068706;28;45462;-82
2023/08/20 02:15:12;;;;;;;;;4.00;1.50;;;;;;;;5062620;28;47254;-82
2023/08/20 02:17:38;;;;;;;;;2.50;2.00;;;;;;;;5088776;27;45686;-82
2023/08/20 02:20:04;;;;;;;;;1.00;1.00;;;;;;;;5068377;28;45712;-81
2023/08/20 02:22:29;;;;;;;;;2.25;2.25;;;;;;;;5056709;28;45841;-82
2023/08/20 02:24:55;;;;;;;;;1.25;1.25;;;;;;;;5056756;28;46022;-82
2023/08/20 02:27:22;;;;;;;;;2.00;1.00;;;;;;;;5056433;28;45622;-81
2023/08/20 02:29:47;;;;;;;;;2.00;2.00;;;;;;;;5047383;28;45477;-82
2023/08/20 02:32:13;;;;;;;;;2.00;2.00;;;;;;;;5056450;28;45835;-83
2023/08/20 02:34:38;;;;;;;;;0.25;0.25;;;;;;;;5057154;28;46772;-83
2023/08/20 02:37:03;;;;;;;;;2.00;1.00;;;;;;;;5051685;28;45592;-81
2023/08/20 02:39:28;;;;;;;;;1.25;1.25;;;;;;;;5059906;28;45461;-80
2023/08/20 02:41:54;;;;;;;;;3.00;2.00;;;;;;;;5063879;28;45862;-82
2023/08/20 02:44:19;;;;;;;;;3.25;2.00;;;;;;;;5059204;28;46265;-80
2023/08/20 02:46:45;;;;;;;;;1.50;1.50;;;;;;;;5050053;28;45808;-80
2023/08/20 02:49:11;;;;;;;;;1.00;1.00;;;;;;;;5063216;28;45326;-82
2023/08/20 02:51:36;;;;;;;;;2.25;2.25;;;;;;;;5055945;28;46923;-80
2023/08/20 02:54:03;;;;;;;;;1.75;1.25;;;;;;;;5066530;28;45406;-80
2023/08/20 02:56:29;;;;;;;;;2.00;2.00;;;;;;;;5063319;28;45676;-80
2023/08/20 02:58:54;;;;;;;;;3.00;2.75;;;;;;;;5055498;28;45598;-82
2023/08/20 03:01:20;;;;;;;;;2.50;2.25;;;;;;;;5043070;28;45447;-86
2023/08/20 03:03:47;;;;;;;;;2.00;2.00;;;;;;;;5057258;28;47322;-84
2023/08/20 03:06:13;;;;;;;;;2.25;1.50;;;;;;;;5055789;28;45472;-87
2023/08/20 03:08:38;;;;;;;;;3.25;2.00;;;;;;;;5061971;27;45881;-86
2023/08/20 03:11:03;;;;;;;;;2.00;2.00;;;;;;;;5056910;28;45488;-84
2023/08/20 03:13:29;;;;;;;;;2.00;2.00;;;;;;;;5054638;28;46972;-84
2023/08/20 03:15:54;;;;;;;;;4.25;2.75;;;;;;;;5041162;28;45971;-85
2023/08/20 03:18:20;;;;;;;;;3.00;1.75;;;;;;;;5047428;28;45643;-85
2023/08/20 03:20:45;;;;;;;;;2.00;2.00;;;;;;;;5046184;28;45696;-84
2023/08/20 03:23:13;;;;;;;;;1.67;1.67;;;;;;;;5057457;28;46588;-85
2023/08/20 03:25:38;;;;;;;;;2.00;2.00;;;;;;;;5067275;28;45473;-85
2023/08/20 03:28:04;;;;;;;;;2.00;2.00;;;;;;;;5065897;28;45505;-83
2023/08/20 03:30:29;;;;;;;;;3.00;3.00;;;;;;;;5035557;28;46359;-84
2023/08/20 03:32:55;;;;;;;;;5.75;4.50;;;;;;;;5021587;28;46746;-84
2023/08/20 03:35:20;;;;;;;;;2.25;2.00;;;;;;;;5061086;28;45678;-85
2023/08/20 03:37:46;;;;;;;;;3.00;2.00;;;;;;;;5062375;28;45498;-84
2023/08/20 03:40:12;;;;;;;;;1.00;1.00;;;;;;;;5068762;28;45975;-83
2023/08/20 03:42:37;;;;;;;;;6.50;2.75;;;;;;;;5070591;28;46049;-87
2023/08/20 03:45:03;;;;;;;;;2.25;2.25;;;;;;;;5037843;28;45830;-86
2023/08/20 03:47:29;;;;;;;;;1.50;1.50;;;;;;;;5029060;28;45372;-85
2023/08/20 03:49:55;;;;;;;;;2.00;2.00;;;;;;;;5037687;28;46668;-84
2023/08/20 03:52:20;;;;;;;;;3.33;2.00;;;;;;;;5039377;28;47981;-84
2023/08/20 03:54:46;;;;;;;;;1.25;1.25;;;;;;;;5060302;28;45375;-85
2023/08/20 03:57:11;;;;;;;;;1.00;1.00;;;;;;;;5032486;28;45431;-83
2023/08/20 03:59:37;;;;;;;;;2.25;2.00;;;;;;;;5068066;28;45586;-80
2023/08/20 04:02:02;;;;;;;;;3.00;3.00;;;;;;;;5075401;28;46023;-88
2023/08/20 04:04:28;;;;;;;;;2.25;1.50;;;;;;;;5057504;28;45517;-84
2023/08/20 04:06:53;;;;;;;;;2.25;1.00;;;;;;;;5063224;28;45382;-88
2023/08/20 04:09:18;;;;;;;;;5.25;3.50;;;;;;;;5064024;28;45434;-87
2023/08/20 04:11:44;;;;;;;;;3.50;2.00;;;;;;;;5041832;28;46886;-86
2023/08/20 04:14:09;;;;;;;;;4.00;2.25;;;;;;;;5046473;28;45095;-86
2023/08/20 04:16:34;;;;;;;;;1.00;1.00;;;;;;;;5082769;28;44736;-88
2023/08/20 04:19:00;;;;;;;;;5.50;3.00;;;;;;;;5063782;28;45892;-86
2023/08/20 04:21:25;;;;;;;;;2.50;2.25;;;;;;;;5065705;28;47015;-89
2023/08/20 04:23:50;;;;;;;;;3.00;2.75;;;;;;;;5104023;27;45391;-86
2023/08/20 04:26:15;;;;;;;;;2.00;2.00;;;;;;;;5075288;28;45897;-86
2023/08/20 04:28:41;;;;;;;;;2.50;2.00;;;;;;;;5081288;27;45840;-88
2023/08/20 04:31:06;;;;;;;;;5.75;2.75;;;;;;;;5099806;27;46325;-89
2023/08/20 04:33:31;;;;;;;;;2.50;2.50;;;;;;;;5069451;28;45384;-86
2023/08/20 04:35:58;;;;;;;;;1.25;0.75;;;;;;;;5058812;28;45395;-82
2023/08/20 04:38:23;;;;;;;;;1.25;1.00;;;;;;;;5069340;27;45877;-88
2023/08/20 04:40:49;;;;;;;;;1.25;1.25;;;;;;;;5095137;27;46307;-87
2023/08/20 04:43:15;;;;;;;;;2.00;2.00;;;;;;;;5073498;28;45465;-88
2023/08/20 04:45:41;;;;;;;;;4.00;2.75;;;;;;;;5075373;27;45734;-86
2023/08/20 04:48:07;;;;;;;;;2.50;2.50;;;;;;;;5088669;27;45454;-85
2023/08/20 04:50:33;;;;;;;;;4.75;3.75;;;;;;;;5087522;27;46552;-90
2023/08/20 04:53:01;;;;;;;;;2.25;2.25;;;;;;;;5087160;27;45464;-84
2023/08/20 04:55:28;;;;;;;;;3.33;3.33;;;;;;;;5082304;27;45777;-84
2023/08/20 04:57:55;;;;;;;;;2.00;2.00;;;;;;;;5073244;27;46123;-86
2023/08/20 05:00:21;;;;;;;;;3.00;3.00;;;;;;;;5077882;27;46677;-85
2023/08/20 05:02:47;;;;;;;;;3.00;3.00;;;;;;;;5074759;28;45300;-85
2023/08/20 05:05:19;;;;;;;;;4.25;2.25;;;;;;;;5098196;27;45410;-86
2023/08/20 05:07:44;;;;;;;;;3.00;3.00;;;;;;;;5090874;27;45409;-84
2023/08/20 05:10:10;;;;;;;;;5.50;4.00;;;;;;;;5108415;27;45212;-85
2023/08/20 05:12:36;;;;;;;;;2.00;1.75;;;;;;;;5080894;28;44763;-88
2023/08/20 05:15:01;;;;;;;;;2.00;2.00;;;;;;;;5072713;28;45288;-87
2023/08/20 05:17:27;;;;;;;;;2.00;1.25;;;;;;;;5104332;27;45265;-89
2023/08/20 05:19:52;;;;;;;;;3.00;2.00;;;;;;;;5086529;28;46942;-88
2023/08/20 05:22:17;;;;;;;;;3.50;2.00;;;;;;;;5088956;27;45046;-86
2023/08/20 05:24:42;;;;;;;;;1.75;1.75;;;;;;;;5073294;27;45342;-88
2023/08/20 05:27:09;;;;;;;;;2.75;2.75;;;;;;;;5071624;28;47201;-88
2023/08/20 05:29:34;;;;;;;;;3.25;2.25;;;;;;;;5084938;27;47386;-86
2023/08/20 05:32:00;;;;;;;;;4.75;3.00;;;;;;;;5109753;27;45401;-88
2023/08/20 05:34:25;;;;;;;;;2.25;2.00;;;;;;;;5083183;27;45319;-88
2023/08/20 05:36:50;;;;;;;;;1.00;1.00;;;;;;;;5077281;28;45656;-88
2023/08/20 05:39:16;;;;;;;;;2.00;2.00;;;;;;;;5089413;27;45816;-88
2023/08/20 05:41:41;;;;;;;;;2.00;2.00;;;;;;;;5089835;27;45471;-90
2023/08/20 05:44:06;;;;;;;;;6.00;3.00;;;;;;;;5070769;27;44774;-87
2023/08/20 05:46:31;;;;;;;;;2.75;2.25;;;;;;;;5076715;28;45813;-89
2023/08/20 05:48:57;;;;;;;;;3.50;2.25;;;;;;;;5095489;27;46678;-87
2023/08/20 05:51:22;;;;;;;;;3.50;2.00;;;;;;;;5085643;28;44739;-89
2023/08/20 05:53:58;;;;;;;;;1.00;1.00;;;;;;;;5098545;28;45461;-89
2023/08/20 05:56:52;;;;;;;;;6.25;2.00;;;;;;;;5104577;27;45418;-84
2023/08/20 05:59:19;;;;;;;;;2.00;2.00;;;;;;;;5106186;27;45490;-88
2023/08/20 06:01:44;;;;;;;;;2.00;2.00;;;;;;;;5069172;27;45818;-87
2023/08/20 06:04:10;;;;;;;;;4.00;2.25;;;;;;;;5091366;27;45347;-88
2023/08/20 06:06:35;;;;;;;;;3.00;3.00;;;;;;;;5088891;28;45804;-89
2023/08/20 06:09:01;;;;;;;;;2.00;2.00;;;;;;;;5087383;27;45442;-88
2023/08/20 06:11:26;;;;;;;;;3.00;3.00;;;;;;;;5084081;28;45496;-89
2023/08/20 06:13:51;;;;;;;;;3.00;3.00;;;;;;;;5081629;27;45370;-88
2023/08/20 06:16:17;;;;;;;;;1.50;1.50;;;;;;;;5087741;27;45922;-88
2023/08/20 06:18:42;;;;;;;;;3.50;2.25;;;;;;;;5099031;27;45417;-89
2023/08/20 06:21:07;;;;;;;;;1.00;1.00;;;;;;;;5082304;28;45648;-89
2023/08/20 06:23:32;;;;;;;;;3.00;2.00;;;;;;;;5073452;28;45329;-89
2023/08/20 06:25:58;;;;;;;;;2.25;2.00;;;;;;;;5065927;28;46043;-88
2023/08/20 06:28:23;;;;;;;;;3.00;2.25;;;;;;;;5066144;28;46949;-89
2023/08/20 06:30:48;;;;;;;;;3.00;3.00;;;;;;;;5080034;27;45516;-88
2023/08/20 06:33:14;;;;;;;;;3.00;3.00;;;;;;;;5057982;28;45423;-90
2023/08/20 06:35:41;;;;;;;;;5.00;2.00;;;;;;;;5070053;28;45507;-88
2023/08/20 06:38:07;;;;;;;;;5.00;3.50;;;;;;;;5063909;28;47512;-87
2023/08/20 06:40:32;;;;;;;;;4.50;2.50;;;;;;;;5072789;27;45455;-86
2023/08/20 06:42:58;;;;;;;;;4.00;2.50;;;;;;;;5082526;27;45356;-89
2023/08/20 06:45:23;;;;;;;;;3.25;2.00;;;;;;;;5064968;28;45890;-88
2023/08/20 06:47:48;;;;;;;;;2.25;2.25;;;;;;;;5067405;28;46913;-88
2023/08/20 06:50:13;;;;;;;;;5.00;3.00;;;;;;;;5064782;28;45381;-87
2023/08/20 06:52:39;;;;;;;;;4.00;4.00;;;;;;;;5048728;28;45961;-89
2023/08/20 06:55:04;;;;;;;;;3.00;3.00;;;;;;;;5055315;28;45652;-90
2023/08/20 06:57:30;;;;;;;;;4.00;2.25;;;;;;;;5065616;28;45496;-89
2023/08/20 06:59:55;;;;;;;;;3.00;3.00;;;;;;;;5064356;27;45466;-90
2023/08/20 07:02:20;;;;;;;;;3.25;3.00;;;;;;;;5081154;28;45235;-89
2023/08/20 07:04:46;;;;;;;;;3.00;3.00;;;;;;;;5099550;27;45332;-85
2023/08/20 07:07:12;;;;;;;;;2.00;2.00;;;;;;;;5085908;27;47055;-87
2023/08/20 07:09:38;;;;;;;;;2.25;2.25;;;;;;;;5078016;28;44948;-90
2023/08/20 07:12:03;;;;;;;;;3.00;1.75;;;;;;;;5068201;28;45168;-89
2023/08/20 07:14:28;;;;;;;;;3.25;2.25;;;;;;;;5083392;28;45364;-90
2023/08/20 07:16:54;;;;;;;;;4.00;4.00;;;;;;;;5079569;27;48312;-88
2023/08/20 07:19:19;;;;;;;;;2.75;2.75;;;;;;;;5081247;28;45283;-89
2023/08/20 07:21:44;;;;;;;;;2.00;1.00;;;;;;;;5047609;28;45379;-89
2023/08/20 07:24:10;;;;;;;;;4.75;3.50;;;;;;;;5064685;28;45080;-88
2023/08/20 07:26:36;;;;;;;;;2.00;2.00;;;;;;;;5057908;28;46328;-87
2023/08/20 07:29:01;;;;;;;;;2.25;2.25;;;;;;;;5048150;28;45642;-86
2023/08/20 07:31:30;;;;;;;;;3.25;2.50;;;;;;;;5065547;28;45465;-88
2023/08/20 07:33:56;;;;;;;;;2.75;2.00;;;;;;;;5045780;28;45804;-88
2023/08/20 07:36:22;;;;;;;;;4.00;3.50;;;;;;;;5081100;28;45697;-88
2023/08/20 07:38:48;;;;;;;;;1.50;1.00;;;;;;;;5063697;28;45310;-89
2023/08/20 07:41:13;;;;;;;;;2.00;2.00;;;;;;;;5047214;28;45397;-90
2023/08/20 07:43:39;;;;;;;;;5.00;3.00;;;;;;;;5047863;28;45702;-90
2023/08/20 07:46:05;;;;;;;;;2.50;2.50;;;;;;;;5058277;28;47202;-90
2023/08/20 07:48:32;;;;;;;;;4.75;3.25;;;;;;;;5059167;28;45356;-91
2023/08/20 07:51:01;;;;;;;;;4.00;3.00;;;;;;;;5051032;28;45482;-90
2023/08/20 07:53:26;;;;;;;;;5.25;4.50;;;;;;;;5042733;28;45684;-89
2023/08/20 07:55:51;;;;;;;;;2.75;2.75;;;;;;;;5047367;28;47949;-89
2023/08/20 07:58:17;;;;;;;;;5.00;4.00;;;;;;;;5057945;28;45118;-89
2023/08/20 08:00:42;;;;;;;;;3.75;3.75;;;;;;;;5084577;28;46311;-90
2023/08/20 08:03:09;;;;;;;;;5.25;3.50;;;;;;;;5060071;28;44815;-91
2023/08/20 08:05:34;;;;;;;;;3.00;2.00;;;;;;;;5041066;28;46788;-89
2023/08/20 08:08:00;;;;;;;;;4.75;3.75;;;;;;;;5068062;28;45275;-89
2023/08/20 08:10:25;;;;;;;;;3.00;3.00;;;;;;;;5058931;28;45363;-88
2023/08/20 08:12:50;;;;;;;;;4.00;4.00;;;;;;;;5046909;28;46545;-90
2023/08/20 08:15:15;;;;;;;;;5.00;4.25;;;;;;;;5055186;28;48486;-90
2023/08/20 08:17:41;;;;;;;;;3.75;3.75;;;;;;;;5046029;28;45363;-89
2023/08/20 08:20:06;;;;;;;;;3.25;3.25;;;;;;;;5075020;28;45463;-88
2023/08/20 08:22:32;;;;;;;;;4.75;4.00;;;;;;;;5076861;28;45512;-89
2023/08/20 08:24:58;;;;;;;;;7.50;5.00;;;;;;;;5077746;27;46912;-89
2023/08/20 08:27:44;;;;;;;;;5.00;5.00;;;;;;;;5056787;28;45596;-89
2023/08/20 08:30:10;;;;;;;;;4.50;3.50;;;;;;;;5075339;28;45438;-90
2023/08/20 08:32:36;;;;;;;;;4.00;4.00;;;;;;;;5083022;28;46064;-89
2023/08/20 08:35:22;;;;;;;;;4.50;4.50;;;;;;;;5093070;28;45404;-88
2023/08/20 08:37:48;;;;;;;;;4.25;4.25;;;;;;;;5066773;28;45866;-89
2023/08/20 08:40:16;;;;;;;;;6.00;5.00;;;;;;;;5050847;28;45325;-88
2023/08/20 08:42:47;;;;;;;;;5.00;4.50;;;;;;;;5081316;27;45485;-89
2023/08/20 08:45:21;;;;;;;;;5.75;5.00;;;;;;;;5118858;27;45379;-87
2023/08/20 08:47:52;;;;;;;;;6.25;5.25;;;;;;;;5090314;27;45477;-90
2023/08/20 08:50:18;;;;;;;;;6.75;5.00;;;;;;;;5085860;28;44791;-89
2023/08/20 08:52:44;;;;;;;;;6.00;5.25;;;;;;;;5099015;27;45669;-89
2023/08/20 08:55:10;;;;;;;;;7.75;5.50;;;;;;;;5112869;27;45395;-89
2023/08/20 08:57:38;;;;;;;;;5.00;5.00;;;;;;;;5086399;27;44737;-91
2023/08/20 09:00:04;;;;;;;;;3.25;3.25;;;;;;;;5092956;27;44772;-92
2023/08/20 09:02:29;;;;;;;;;6.50;5.50;;;;;;;;5076077;28;45804;-88
2023/08/20 09:04:54;;;;;;;;;6.50;5.00;;;;;;;;5095523;28;45499;-90
2023/08/20 09:07:23;;;;;;;;;4.75;4.75;;;;;;;;5089894;28;44855;-90
2023/08/20 09:09:51;;;;;;;;;4.25;4.25;;;;;;;;5055484;22;45461;-67
2023/08/20 09:12:17;;;;;;;;;5.00;5.00;;;;;;;;5050114;28;45470;-67
2023/08/20 09:14:47;;;;;;;;;5.25;3.75;;;;;;;;5044098;28;45638;-66
2023/08/20 09:17:13;;;;;;;;;3.00;3.00;;;;;;;;5039408;28;45448;-66
2023/08/20 09:19:38;;;;;;;;;4.50;4.50;;;;;;;;5039846;28;45797;-66
2023/08/20 09:22:03;;;;;;;;;5.75;4.00;;;;;;;;5031392;28;45446;-66
2023/08/20 09:24:42;;;;;;;;;3.75;3.75;;;;;;;;5043960;28;45514;-67
2023/08/20 09:27:08;;;;;;;;;4.75;3.00;;;;;;;;5039429;28;45379;-68
2023/08/20 09:29:43;;;;;;;;;4.75;4.00;;;;;;;;5057240;28;45564;-67
2023/08/20 09:32:13;;;;;;;;;5.50;5.25;;;;;;;;5052648;28;45567;-67
2023/08/20 09:34:39;;;;;;;;;12.67;11.67;;;;;;;;5039563;28;46990;-66
2023/08/20 09:37:08;;;;;;;;;5.75;5.00;;;;;;;;5050777;28;45733;-67
2023/08/20 09:39:33;;;;;;;;;4.00;4.00;;;;;;;;5039531;28;45349;-67
2023/08/20 09:42:00;;;;;;;;;4.75;4.00;;;;;;;;5055958;28;46288;-68
2023/08/20 09:44:32;;;;;;;;;5.00;4.00;;;;;;;;5056488;28;46178;-66
2023/08/20 09:46:58;;;;;;;;;2.75;1.00;;;;;;;;5053341;28;45384;-65
2023/08/20 09:49:28;;;;;;;;;4.00;4.00;;;;;;;;5057369;28;45468;-66
2023/08/20 09:51:55;;;;;;;;;4.00;3.75;;;;;;;;5037825;28;45328;-66
2023/08/20 09:54:25;;;;;;;;;4.75;4.75;;;;;;;;5055211;28;45653;-66
2023/08/20 09:56:53;;;;;;;;;5.25;5.25;;;;;;;;5054520;28;45838;-67
2023/08/20 09:59:19;;;;;;;;;6.00;4.00;;;;;;;;5055660;28;45377;-68
2023/08/20 10:01:47;;;;;;;;;6.00;5.00;;;;;;;;5049671;28;45407;-67
2023/08/20 10:04:14;;;;;;;;;3.75;3.25;;;;;;;;5037109;28;46727;-67
2023/08/20 10:06:43;;;;;;;;;4.25;4.00;;;;;;;;5054903;28;45478;-68
2023/08/20 10:09:09;;;;;;;;;7.75;4.00;;;;;;;;5056642;28;45464;-68
2023/08/20 10:11:34;;;;;;;;;5.50;4.75;;;;;;;;5037681;28;46142;-67
2023/08/20 10:13:59;;;;;;;;;3.50;2.75;;;;;;;;5055474;28;45787;-66
2023/08/20 10:16:27;;;;;;;;;6.50;5.00;;;;;;;;5056484;28;45518;-65
2023/08/20 10:18:55;;;;;;;;;3.75;3.75;;;;;;;;5038195;28;45575;-67
2023/08/20 10:21:23;;;;;;;;;4.25;4.25;;;;;;;;5056050;28;45364;-67
2023/08/20 10:23:49;;;;;;;;;6.75;4.00;;;;;;;;5056482;28;45873;-67
2023/08/20 10:26:18;;;;;;;;;6.00;5.00;;;;;;;;5056358;28;45429;-66
2023/08/20 10:28:44;;;;;;;;;4.00;4.00;;;;;;;;5055034;28;45659;-66
2023/08/20 10:31:11;;;;;;;;;2.00;2.00;;;;;;;;5057377;28;45647;-67
2023/08/20 10:33:57;;;;;;;;;5.50;3.25;;;;;;;;5039592;28;46864;-67
2023/08/20 10:36:32;;;;;;;;;3.50;3.50;;;;;;;;5041021;28;45493;-67
2023/08/20 10:39:03;;;;;;;;;3.00;2.00;;;;;;;;5055038;28;45630;-65
2023/08/20 10:41:28;;;;;;;;;4.00;4.00;;;;;;;;5055458;28;45303;-66
2023/08/20 10:43:57;;;;;;;;;3.00;3.00;;;;;;;;5055772;28;46864;-66
2023/08/20 10:46:26;;;;;;;;;4.00;3.00;;;;;;;;5055938;28;45773;-65
2023/08/20 10:49:01;;;;;;;;;3.00;3.00;;;;;;;;5056612;28;45345;-66
2023/08/20 10:51:26;;;;;;;;;3.25;3.25;;;;;;;;5037995;28;45697;-68
2023/08/20 10:54:01;;;;;;;;;3.25;3.25;;;;;;;;5055907;28;45352;-67
2023/08/20 10:56:41;;;;;;;;;3.00;3.00;;;;;;;;5056092;28;45365;-66
2023/08/20 10:59:13;;;;;;;;;3.00;3.00;;;;;;;;5055273;28;45409;-66
2023/08/20 11:01:38;;;;;;;;;4.00;4.00;;;;;;;;5055078;28;47325;-65
2023/08/20 11:04:07;;;;;;;;;4.00;3.00;;;;;;;;5055092;28;46338;-67
2023/08/20 11:06:32;;;;;;;;;3.00;3.00;;;;;;;;5055336;28;45377;-69
2023/08/20 11:08:57;;;;;;;;;5.50;4.00;;;;;;;;5055462;28;45338;-68
2023/08/20 11:11:25;;;;;;;;;4.00;3.00;;;;;;;;5054910;28;46161;-67
2023/08/20 11:13:55;;;;;;;;;3.50;3.00;;;;;;;;5038056;28;45747;-67
2023/08/20 11:16:21;;;;;;;;;3.50;3.00;;;;;;;;5056025;28;45637;-68
2023/08/20 11:18:46;;;;;;;;;3.75;3.50;;;;;;;;5038051;28;45627;-68
2023/08/20 11:21:12;;;;;;;;;3.00;3.00;;;;;;;;5054615;28;45769;-68
2023/08/20 11:23:41;;;;;;;;;5.00;3.00;;;;;;;;5055784;28;45638;-67
2023/08/20 11:26:13;;;;;;;;;3.75;3.00;;;;;;;;5055569;28;45338;-69
2023/08/20 11:28:38;;;;;;;;;4.00;4.00;;;;;;;;5054463;28;45413;-68
2023/08/20 11:31:04;;;;;;;;;3.75;3.75;;;;;;;;5037474;28;47213;-65
2023/08/20 11:33:29;;;;;;;;;5.50;4.00;;;;;;;;5037572;28;45350;-66
2023/08/20 11:35:54;;;;;;;;;6.00;3.50;;;;;;;;5037470;28;46358;-67
2023/08/20 11:38:20;;;;;;;;;8.25;6.00;;;;;;;;5048227;28;45719;-66
2023/08/20 11:40:47;;;;;;;;;5.00;5.00;;;;;;;;5053878;28;45433;-67
2023/08/20 11:43:12;;;;;;;;;5.00;5.00;;;;;;;;5054497;28;45733;-66
2023/08/20 11:45:45;;;;;;;;;5.50;4.75;;;;;;;;5037429;28;45326;-67
2023/08/20 11:48:10;;;;;;;;;5.00;4.00;;;;;;;;5055070;28;45481;-66
2023/08/20 11:50:37;;;;;;;;;4.00;4.00;;;;;;;;5054557;28;45326;-68
2023/08/20 11:53:03;;;;;;;;;4.00;4.00;;;;;;;;5037008;28;46847;-68
2023/08/20 11:55:32;;;;;;;;;6.00;5.00;;;;;;;;5037140;28;45743;-66
2023/08/20 11:58:02;;;;;;;;;4.00;4.00;;;;;;;;5055108;28;45390;-66
2023/08/20 12:00:31;;;;;;;;;5.50;5.50;;;;;;;;5053212;28;45466;-67
2023/08/20 12:02:57;;;;;;;;;3.25;3.25;;;;;;;;5054844;28;45357;-67
2023/08/20 12:05:31;;;;;;;;;4.25;3.00;;;;;;;;5055271;28;45393;-68
2023/08/20 12:08:01;;;;;;;;;5.00;3.25;;;;;;;;5034922;28;45417;-67
2023/08/20 12:10:27;;;;;;;;;3.00;3.00;;;;;;;;5054705;28;45424;-67
2023/08/20 12:12:53;;;;;;;;;4.25;4.25;;;;;;;;5036809;28;47402;-67
2023/08/20 12:15:19;;;;;;;;;3.00;3.00;;;;;;;;5053960;28;45377;-66
2023/08/20 12:17:55;;;;;;;;;3.50;2.25;;;;;;;;5054906;28;45524;-67
2023/08/20 12:20:20;;;;;;;;;6.50;4.00;;;;;;;;5055102;28;45722;-67
2023/08/20 12:22:45;;;;;;;;;2.00;2.00;;;;;;;;5061393;28;45303;-67
2023/08/20 12:25:11;;;;;;;;;3.25;2.75;;;;;;;;5054592;28;45470;-68
2023/08/20 12:27:37;;;;;;;;;4.50;3.00;;;;;;;;5054092;28;45501;-67
2023/08/20 12:30:03;;;;;;;;;3.00;3.00;;;;;;;;5036150;28;45518;-67
2023/08/20 12:32:28;;;;;;;;;3.50;3.25;;;;;;;;5035173;28;47456;-66
2023/08/20 12:34:56;;;;;;;;;2.75;2.75;;;;;;;;5054648;28;45401;-67
2023/08/20 12:37:22;;;;;;;;;5.75;3.50;;;;;;;;5057613;28;45694;-67
2023/08/20 12:39:49;;;;;;;;;3.00;3.00;;;;;;;;5040245;28;46035;-67
2023/08/20 12:42:15;;;;;;;;;3.25;3.25;;;;;;;;5056703;28;45379;-67
2023/08/20 12:44:40;;;;;;;;;1.00;1.00;;;;;;;;5057899;28;45689;-69
2023/08/20 12:47:06;;;;;;;;;4.00;3.00;;;;;;;;5057154;28;45646;-68
2023/08/20 12:49:31;;;;;;;;;2.00;2.00;;;;;;;;5056815;28;45413;-66
2023/08/20 12:51:56;;;;;;;;;2.75;2.75;;;;;;;;5057230;28;45720;-68
2023/08/20 12:54:21;;;;;;;;;4.00;3.00;;;;;;;;5057646;28;45495;-66
2023/08/20 12:56:47;;;;;;;;;3.00;3.00;;;;;;;;5038307;28;45759;-67
2023/08/20 12:59:12;;;;;;;;;3.25;3.25;;;;;;;;5057208;28;45482;-67
2023/08/20 13:01:37;;;;;;;;;2.00;2.00;;;;;;;;5057079;28;45376;-67
2023/08/20 13:04:03;;;;;;;;;4.50;4.00;;;;;;;;5057487;28;45806;-67
2023/08/20 13:06:29;;;;;;;;;2.75;2.75;;;;;;;;5057177;28;45318;-66
2023/08/20 13:08:54;;;;;;;;;3.50;3.50;;;;;;;;5055579;28;45638;-68
2023/08/20 13:11:20;;;;;;;;;2.75;2.50;;;;;;;;5056886;28;46065;-66
2023/08/20 13:13:45;;;;;;;;;5.25;2.25;;;;;;;;5055537;28;45603;-66
2023/08/20 13:16:10;;;;;;;;;5.00;3.00;;;;;;;;5057366;28;45817;-68
2023/08/20 13:18:36;;;;;;;;;3.50;3.00;;;;;;;;5057200;28;45303;-66
2023/08/20 13:21:03;;;;;;;;;2.00;2.00;;;;;;;;5056723;28;46200;-67
2023/08/20 13:23:29;;;;;;;;;3.00;3.00;;;;;;;;5056808;28;45338;-66
2023/08/20 13:25:54;;;;;;;;;7.25;7.25;;;;;;;;5038585;28;45681;-68
2023/08/20 13:28:19;;;;;;;;;2.25;2.00;;;;;;;;5056314;28;45886;-66
2023/08/20 13:30:45;;;;;;;;;1.50;1.50;;;;;;;;5056344;28;46393;-65
2023/08/20 13:33:10;;;;;;;;;2.60;2.60;;;;;;;;5038920;28;45664;-68
2023/08/20 13:35:36;;;;;;;;;2.00;2.00;;;;;;;;5056682;28;45760;-67
2023/08/20 13:38:01;;;;;;;;;2.00;1.00;;;;;;;;5056594;28;45314;-66
2023/08/20 13:40:26;;;;;;;;;2.00;2.00;;;;;;;;5038569;28;47019;-68
2023/08/20 13:42:51;;;;;;;;;2.00;2.00;;;;;;;;5055343;28;45493;-65
2023/08/20 13:45:16;;;;;;;;;3.00;3.00;;;;;;;;5056566;28;45571;-68
2023/08/20 13:47:44;;;;;;;;;3.00;3.00;;;;;;;;5054899;28;45381;-68
2023/08/20 13:50:09;;;;;;;;;1.50;1.50;;;;;;;;5055701;28;45564;-68
2023/08/20 13:52:34;;;;;;;;;2.75;1.75;;;;;;;;5056063;28;45461;-68
2023/08/20 13:55:00;;;;;;;;;2.75;2.25;;;;;;;;5056617;28;45766;-67
2023/08/20 13:57:25;;;;;;;;;4.00;1.25;;;;;;;;5056319;28;45730;-67
2023/08/20 13:59:50;;;;;;;;;1.50;1.50;;;;;;;;5055516;28;45805;-66
2023/08/20 14:02:16;;;;;;;;;1.00;1.00;;;;;;;;5056233;28;45458;-66
2023/08/20 14:04:41;;;;;;;;;2.00;1.00;;;;;;;;5056346;28;45424;-66
2023/08/20 14:07:06;;;;;;;;;1.00;1.00;;;;;;;;5038565;28;46569;-67
2023/08/20 14:09:34;;;;;;;;;1.75;1.75;;;;;;;;5056161;28;45411;-66
2023/08/20 14:11:59;;;;;;;;;2.00;1.00;;;;;;;;5056329;28;45655;-68
2023/08/20 14:14:25;;;;;;;;;1.00;1.00;;;;;;;;5056714;28;45293;-66
2023/08/20 14:16:50;;;;;;;;;1.75;1.25;;;;;;;;5056260;28;45641;-67
2023/08/20 14:19:15;;;;;;;;;3.00;3.00;;;;;;;;5056033;28;45348;-68
2023/08/20 14:21:41;;;;;;;;;1.75;1.75;;;;;;;;5056283;28;45468;-66
2023/08/20 14:24:06;;;;;;;;;1.00;1.00;;;;;;;;5051680;28;45513;-66
2023/08/20 14:26:32;;;;;;;;;0.50;0.50;;;;;;;;5038259;28;45849;-67
2023/08/20 14:28:57;;;;;;;;;3.50;2.00;;;;;;;;5041192;28;45755;-65
2023/08/20 14:31:22;;;;;;;;;2.00;2.00;;;;;;;;5035210;28;45848;-71
2023/08/20 14:33:47;;;;;;;;;1.00;1.00;;;;;;;;5039683;28;45432;-67
2023/08/20 14:36:12;;;;;;;;;2.25;2.25;;;;;;;;5037102;28;46306;-68
2023/08/20 14:38:38;;;;;;;;;2.00;2.00;;;;;;;;5051457;28;45482;-67